Caipirinha — ZCYL2 — position and weather

sailwx.info

Track history (hours):
 
Tides and Currents Weather Stations Pressure Air Temp Water Temp Dewpoint Dewpoint Depression Visibility Wind Speed Wind Dir Waves Ship Positions

Caipirinha

Last reported at 2018-May-18 05:51 UTC. Time now 2018-Jun-18 15:42 UTC.
Position N 36°02' W 005°24'.
Warning: this ship's position is 31 days out of date.

Length 60 m; draft 3.5 m.

Type: Pleasure craft. MMSI: 319011100.

Date/timePositionNaut miles runAvg speedWind from/ knotsBaromVisibWave heightAir tempDewpointWater temp
2018-May-18 05:51N 36°02' W 005°24'412.1
2018-May-18 05:30N 36°06' W 005°24'3 5.9
2018-May-18 05:00N 36°09' W 005°22'0 0.0
2018-May-18 04:28N 36°09' W 005°22'0 0.0
2018-May-18 03:58N 36°09' W 005°22'0 0.0
2018-May-18 03:28N 36°09' W 005°22'0 0.0
2018-May-18 02:58N 36°09' W 005°22'0 0.0
2018-May-18 02:28N 36°09' W 005°22'0 0.0
2018-May-18 01:58N 36°09' W 005°22'0 0.0
2018-May-18 01:28N 36°09' W 005°22'0 0.0
2018-May-18 00:58N 36°09' W 005°22'0 0.0
2018-May-18 00:28N 36°09' W 005°22'0 0.0
2018-May-17 23:52N 36°09' W 005°22'0 0.0
2018-May-17 23:28N 36°09' W 005°22'0 0.0
2018-May-17 22:58N 36°09' W 005°22'0 0.0
2018-May-17 22:22N 36°09' W 005°22'0 0.0
2018-May-17 21:58N 36°09' W 005°22'0 0.0
2018-May-17 21:28N 36°09' W 005°22'0 0.0
2018-May-17 20:52N 36°09' W 005°22'0 0.0
2018-May-17 20:28N 36°09' W 005°22'0 0.0
2018-May-17 19:28N 36°09' W 005°22'0 0.0
2018-May-17 18:58N 36°09' W 005°22'0 0.0
2018-May-17 18:16N 36°09' W 005°22'0 0.0
2018-May-17 17:58N 36°09' W 005°22'0 0.0
2018-May-17 14:55N 36°09' W 005°22'0 0.0
2018-May-17 14:19N 36°09' W 005°22'0 0.0
2018-May-17 13:55N 36°09' W 005°22'0 0.0
2018-May-17 13:28N 36°09' W 005°22'0 0.0
2018-May-17 12:43N 36°09' W 005°22'0 0.0
2018-May-17 12:16N 36°09' W 005°22'0 0.0
2018-May-17 11:49N 36°09' W 005°22'0 0.0
2018-May-17 09:31N 36°09' W 005°22'0 0.0
2018-May-17 09:07N 36°09' W 005°22'0 0.0
2018-May-17 08:52N 36°09' W 005°22'0 0.0
2018-May-17 08:16N 36°09' W 005°22'0 0.0
2018-May-17 07:55N 36°09' W 005°22'0 0.0
2018-May-17 07:25N 36°09' W 005°22'0 0.0
2018-May-17 06:58N 36°09' W 005°22'0 0.0
2018-May-17 06:30N 36°09' W 005°22'1 1.4
2018-May-17 06:00N 36°08' W 005°22'4 7.4
2018-May-17 05:31N 36°06' W 005°19'208 8.2
2018-May-16 04:04N 36°40' W 001°04'1213.4
2018-May-16 03:13N 36°43' W 000°50'313.4
2018-May-16 02:58N 36°44' W 000°46'6013.6
2018-May-15 22:35N 36°59' E 000°27'214.1
2018-May-15 22:28N 36°59' E 000°29'  
2018-May-13 17:33N 36°41' E 013°14'113.8
2018-May-13 17:30N 36°41' E 013°15'713.7
2018-May-13 16:57N 36°38' E 013°24'613.8
2018-May-13 16:30N 36°36' E 013°31'1113.6
2018-May-13 15:43N 36°32' E 013°43'413.5
2018-May-13 15:24N 36°30' E 013°48'813.0
2018-May-13 14:46N 36°27' E 013°58'512.9
2018-May-13 14:21N 36°24' E 014°03'412.9
2018-May-13 14:00N 36°22' E 014°08'713.0
2018-May-13 13:30N 36°20' E 014°16'713.2
2018-May-13 13:00N 36°17' E 014°23'713.1
2018-May-13 12:30N 36°16' E 014°31'713.4
2018-May-13 11:57N 36°15' E 014°41'612.9
2018-May-13 11:30N 36°15' E 014°48'  
2018-May-10 01:25N 32°37' E 031°10'  
Track history (hours):
 
Tides and Currents Weather Stations Pressure Air Temp Water Temp Dewpoint Dewpoint Depression Visibility Wind Speed Wind Dir Waves Ship Positions

Caipirinha

Last reported at 2018-May-18 05:51 UTC. Time now 2018-Jun-18 15:42 UTC.
Position N 36°02' W 005°24'.
Warning: this ship's position is 31 days out of date.

Length 60 m; draft 3.5 m.

Type: Pleasure craft. MMSI: 319011100.

Date/timePositionNaut miles runAvg speedWind from/ knotsBaromVisibWave heightAir tempDewpointWater temp
2018-May-18 05:51N 36°02' W 005°24'412.1
2018-May-18 05:30N 36°06' W 005°24'3 5.9
2018-May-18 05:00N 36°09' W 005°22'0 0.0
2018-May-18 04:28N 36°09' W 005°22'0 0.0
2018-May-18 03:58N 36°09' W 005°22'0 0.0
2018-May-18 03:28N 36°09' W 005°22'0 0.0
2018-May-18 02:58N 36°09' W 005°22'0 0.0
2018-May-18 02:28N 36°09' W 005°22'0 0.0
2018-May-18 01:58N 36°09' W 005°22'0 0.0
2018-May-18 01:28N 36°09' W 005°22'0 0.0
2018-May-18 00:58N 36°09' W 005°22'0 0.0
2018-May-18 00:28N 36°09' W 005°22'0 0.0
2018-May-17 23:52N 36°09' W 005°22'0 0.0
2018-May-17 23:28N 36°09' W 005°22'0 0.0
2018-May-17 22:58N 36°09' W 005°22'0 0.0
2018-May-17 22:22N 36°09' W 005°22'0 0.0
2018-May-17 21:58N 36°09' W 005°22'0 0.0
2018-May-17 21:28N 36°09' W 005°22'0 0.0
2018-May-17 20:52N 36°09' W 005°22'0 0.0
2018-May-17 20:28N 36°09' W 005°22'0 0.0
2018-May-17 19:28N 36°09' W 005°22'0 0.0
2018-May-17 18:58N 36°09' W 005°22'0 0.0
2018-May-17 18:16N 36°09' W 005°22'0 0.0
2018-May-17 17:58N 36°09' W 005°22'0 0.0
2018-May-17 14:55N 36°09' W 005°22'0 0.0
2018-May-17 14:19N 36°09' W 005°22'0 0.0
2018-May-17 13:55N 36°09' W 005°22'0 0.0
2018-May-17 13:28N 36°09' W 005°22'0 0.0
2018-May-17 12:43N 36°09' W 005°22'0 0.0
2018-May-17 12:16N 36°09' W 005°22'0 0.0
2018-May-17 11:49N 36°09' W 005°22'0 0.0
2018-May-17 09:31N 36°09' W 005°22'0 0.0
2018-May-17 09:07N 36°09' W 005°22'0 0.0
2018-May-17 08:52N 36°09' W 005°22'0 0.0
2018-May-17 08:16N 36°09' W 005°22'0 0.0
2018-May-17 07:55N 36°09' W 005°22'0 0.0
2018-May-17 07:25N 36°09' W 005°22'0 0.0
2018-May-17 06:58N 36°09' W 005°22'0 0.0
2018-May-17 06:30N 36°09' W 005°22'1 1.4
2018-May-17 06:00N 36°08' W 005°22'4 7.4
2018-May-17 05:31N 36°06' W 005°19'208 8.2
2018-May-16 04:04N 36°40' W 001°04'1213.4
2018-May-16 03:13N 36°43' W 000°50'313.4
2018-May-16 02:58N 36°44' W 000°46'6013.6
2018-May-15 22:35N 36°59' E 000°27'214.1
2018-May-15 22:28N 36°59' E 000°29'  
2018-May-13 17:33N 36°41' E 013°14'113.8
2018-May-13 17:30N 36°41' E 013°15'713.7
2018-May-13 16:57N 36°38' E 013°24'613.8
2018-May-13 16:30N 36°36' E 013°31'1113.6
2018-May-13 15:43N 36°32' E 013°43'413.5
2018-May-13 15:24N 36°30' E 013°48'813.0
2018-May-13 14:46N 36°27' E 013°58'512.9
2018-May-13 14:21N 36°24' E 014°03'412.9
2018-May-13 14:00N 36°22' E 014°08'713.0
2018-May-13 13:30N 36°20' E 014°16'713.2
2018-May-13 13:00N 36°17' E 014°23'713.1
2018-May-13 12:30N 36°16' E 014°31'713.4
2018-May-13 11:57N 36°15' E 014°41'612.9
2018-May-13 11:30N 36°15' E 014°48'  
2018-May-10 01:25N 32°37' E 031°10'  

Dump ship's entire track history